Time;durP1;ratioP1;P1;durP2;ratioP2;P2;SDS_P1;SDS_P2;PMS_P1;PMS_P2;Temp;Humidity;BMP_temperature;BMP_pressure;BME280_temperature;BME280_humidity;BME280_pressure;Samples;Min_cycle;Max_cycle;Signal;HPM_P1;HPM_P2
2023/11/02 00:01:39;;;;;;;9.50;7.20;;;;;;;;;;6258857;22;20048;-70
2023/11/02 00:04:04;;;;;;;10.50;7.32;;;;;;;;;;6284317;22;20048;-70
2023/11/02 00:06:39;;;;;;;10.90;7.00;;;;;;;;;;6287426;22;19995;-69
2023/11/02 00:09:05;;;;;;;9.55;6.68;;;;;;;;;;6261964;22;20005;-69
2023/11/02 00:11:52;;;;;;;10.85;7.22;;;;;;;;;;6258360;22;20417;-70
2023/11/02 00:14:17;;;;;;;10.93;6.75;;;;;;;;;;6261147;22;20003;-69
2023/11/02 00:16:43;;;;;;;10.18;6.22;;;;;;;;;;6256661;22;19999;-69
2023/11/02 00:19:13;;;;;;;9.23;6.65;;;;;;;;;;6259769;22;20003;-69
2023/11/02 00:21:38;;;;;;;9.50;6.80;;;;;;;;;;6256313;22;20357;-69
2023/11/02 00:24:03;;;;;;;9.27;7.00;;;;;;;;;;6258946;22;20018;-69
2023/11/02 00:26:29;;;;;;;10.57;7.13;;;;;;;;;;6258992;22;20222;-70
2023/11/02 00:28:54;;;;;;;12.67;7.20;;;;;;;;;;6257150;22;20034;-70
2023/11/02 00:31:21;;;;;;;9.20;7.07;;;;;;;;;;6260087;22;20226;-69
2023/11/02 00:33:48;;;;;;;9.25;7.13;;;;;;;;;;6285212;22;20336;-69
2023/11/02 00:36:15;;;;;;;9.75;7.32;;;;;;;;;;6258698;22;20122;-68
2023/11/02 00:38:43;;;;;;;9.10;6.53;;;;;;;;;;6258174;22;19995;-69
2023/11/02 00:41:08;;;;;;;10.13;6.65;;;;;;;;;;6258386;22;20014;-69
2023/11/02 00:43:34;;;;;;;8.35;6.68;;;;;;;;;;6258373;22;20003;-69
2023/11/02 00:45:59;;;;;;;10.73;7.32;;;;;;;;;;6260283;22;20023;-68
2023/11/02 00:48:29;;;;;;;10.93;7.75;;;;;;;;;;6257955;22;20044;-68
2023/11/02 00:51:00;;;;;;;11.25;7.35;;;;;;;;;;6287759;22;19999;-69
2023/11/02 00:53:25;;;;;;;9.77;7.30;;;;;;;;;;6259846;22;20015;-69
2023/11/02 00:55:51;;;;;;;8.93;7.05;;;;;;;;;;6287540;22;20056;-69
2023/11/02 00:58:19;;;;;;;9.93;7.72;;;;;;;;;;6287927;22;20647;-69
2023/11/02 01:00:48;;;;;;;11.60;7.95;;;;;;;;;;6259055;22;20011;-69
2023/11/02 01:03:14;;;;;;;9.13;7.30;;;;;;;;;;6260178;22;20035;-68
2023/11/02 01:05:39;;;;;;;9.23;6.97;;;;;;;;;;6257431;22;20022;-68
2023/11/02 01:08:07;;;;;;;10.00;7.00;;;;;;;;;;6259451;22;20016;-68
2023/11/02 01:10:32;;;;;;;13.52;7.82;;;;;;;;;;6284723;22;20355;-69
2023/11/02 01:12:57;;;;;;;10.43;7.43;;;;;;;;;;6287137;22;20615;-68
2023/11/02 01:15:32;;;;;;;11.55;8.05;;;;;;;;;;6286095;22;20213;-69
2023/11/02 01:17:59;;;;;;;9.85;7.43;;;;;;;;;;6287355;22;19995;-69
2023/11/02 01:20:38;;;;;;;10.52;7.88;;;;;;;;;;6260376;22;19995;-69
2023/11/02 01:23:05;;;;;;;11.85;7.80;;;;;;;;;;6257656;22;20003;-69
2023/11/02 01:25:31;;;;;;;10.80;8.32;;;;;;;;;;6287474;22;20006;-69
2023/11/02 01:28:03;;;;;;;13.07;8.30;;;;;;;;;;6286115;22;19995;-69
2023/11/02 01:30:43;;;;;;;12.32;8.75;;;;;;;;;;6259480;22;20336;-69
2023/11/02 01:33:27;;;;;;;11.13;8.38;;;;;;;;;;6258787;22;20076;-69
2023/11/02 01:35:54;;;;;;;12.60;8.48;;;;;;;;;;6287850;22;20000;-69
2023/11/02 01:38:21;;;;;;;10.95;8.40;;;;;;;;;;6257517;22;20046;-68
2023/11/02 01:40:56;;;;;;;11.50;8.63;;;;;;;;;;6260254;22;20073;-68
2023/11/02 01:43:47;;;;;;;13.00;9.45;;;;;;;;;;6260405;22;20048;-68
2023/11/02 01:46:17;;;;;;;11.35;8.52;;;;;;;;;;6251445;22;20640;-69
2023/11/02 01:48:42;;;;;;;;;;;;;;;;;;6260724;22;20007;-68
2023/11/02 01:51:13;;;;;;;12.02;8.82;;;;;;;;;;6285700;22;19910;-68
2023/11/02 01:53:55;;;;;;;11.00;8.80;;;;;;;;;;6288383;22;20050;-68
2023/11/02 01:56:44;;;;;;;10.77;8.05;;;;;;;;;;6285796;22;19999;-68
2023/11/02 01:59:21;;;;;;;11.65;8.57;;;;;;;;;;6259223;22;19995;-69
2023/11/02 02:02:08;;;;;;;12.35;8.13;;;;;;;;;;6286962;22;20585;-69
2023/11/02 02:05:03;;;;;;;11.23;8.48;;;;;;;;;;6257683;22;20006;-68
2023/11/02 02:07:47;;;;;;;10.25;7.82;;;;;;;;;;6254238;22;19999;-68
2023/11/02 02:10:22;;;;;;;9.70;7.15;;;;;;;;;;6286507;22;20073;-68
2023/11/02 02:12:53;;;;;;;10.13;7.28;;;;;;;;;;6286055;22;20003;-69
2023/11/02 02:15:23;;;;;;;11.65;7.30;;;;;;;;;;6288005;22;19999;-69
2023/11/02 02:18:07;;;;;;;11.35;7.60;;;;;;;;;;6258458;22;19999;-69
2023/11/02 02:20:34;;;;;;;11.85;7.53;;;;;;;;;;6259370;22;20966;-68
2023/11/02 02:23:18;;;;;;;9.55;6.88;;;;;;;;;;6286444;22;20371;-68
2023/11/02 02:26:02;;;;;;;10.15;6.88;;;;;;;;;;6258361;22;20031;-68
2023/11/02 02:28:46;;;;;;;10.52;6.10;;;;;;;;;;6261225;22;20006;-68
2023/11/02 02:31:31;;;;;;;7.97;5.20;;;;;;;;;;6257711;22;20006;-68
2023/11/02 02:34:15;;;;;;;7.55;4.85;;;;;;;;;;6258277;22;20980;-68
2023/11/02 02:36:56;;;;;;;7.57;5.10;;;;;;;;;;6288204;22;20162;-68
2023/11/02 02:39:25;;;;;;;6.90;4.80;;;;;;;;;;6257090;22;20505;-68
2023/11/02 02:42:00;;;;;;;8.15;3.70;;;;;;;;;;6287505;22;20597;-68
2023/11/02 02:44:27;;;;;;;6.03;2.78;;;;;;;;;;6284969;22;20078;-69
2023/11/02 02:46:52;;;;;;;6.55;3.33;;;;;;;;;;6286629;22;20015;-68
2023/11/02 02:49:18;;;;;;;7.05;3.65;;;;;;;;;;6258375;22;20672;-68
2023/11/02 02:51:44;;;;;;;5.70;3.47;;;;;;;;;;6285201;22;19999;-70
2023/11/02 02:54:12;;;;;;;6.40;3.10;;;;;;;;;;6260302;22;19999;-68
2023/11/02 02:56:40;;;;;;;6.82;3.38;;;;;;;;;;6256650;22;20086;-68
2023/11/02 02:59:07;;;;;;;6.45;3.17;;;;;;;;;;6286146;22;20072;-68
2023/11/02 03:01:43;;;;;;;7.25;3.35;;;;;;;;;;6284522;22;20023;-68
2023/11/02 03:04:09;;;;;;;5.95;2.90;;;;;;;;;;6260558;22;20003;-68
2023/11/02 03:06:35;;;;;;;5.60;2.75;;;;;;;;;;6258365;22;20427;-69
2023/11/02 03:09:01;;;;;;;6.55;2.83;;;;;;;;;;6286626;22;20023;-68
2023/11/02 03:11:29;;;;;;;6.97;2.90;;;;;;;;;;6256508;22;20049;-68
2023/11/02 03:13:56;;;;;;;6.15;3.20;;;;;;;;;;6259409;22;20038;-68
2023/11/02 03:16:22;;;;;;;6.82;2.90;;;;;;;;;;6258260;22;20003;-68
2023/11/02 03:18:47;;;;;;;6.60;2.97;;;;;;;;;;6258330;22;20245;-68
2023/11/02 03:21:14;;;;;;;5.38;3.03;;;;;;;;;;6259796;22;20390;-68
2023/11/02 03:23:57;;;;;;;7.47;3.70;;;;;;;;;;6257561;22;20078;-68
2023/11/02 03:26:37;;;;;;;7.93;4.55;;;;;;;;;;6259181;22;20003;-68
2023/11/02 03:29:05;;;;;;;8.10;5.00;;;;;;;;;;6284658;22;20310;-68
2023/11/02 03:32:05;;;;;;;8.70;6.32;;;;;;;;;;6285138;22;19995;-68
2023/11/02 03:34:42;;;;;;;14.85;7.10;;;;;;;;;;6105632;23;20009;-68
2023/11/02 03:37:14;;;;;;;9.65;7.40;;;;;;;;;;6236552;22;20056;-68
2023/11/02 03:39:58;;;;;;;10.40;7.28;;;;;;;;;;6260365;22;20004;-68
2023/11/02 03:42:23;;;;;;;8.98;6.40;;;;;;;;;;6261212;22;20011;-68
2023/11/02 03:45:00;;;;;;;9.43;5.73;;;;;;;;;;6258099;22;20003;-68
2023/11/02 03:47:25;;;;;;;9.48;5.63;;;;;;;;;;6289356;22;20245;-68
2023/11/02 03:49:57;;;;;;;9.77;6.80;;;;;;;;;;6260035;22;20036;-68
2023/11/02 03:52:31;;;;;;;9.20;6.90;;;;;;;;;;6262041;22;20253;-68
2023/11/02 03:55:09;;;;;;;9.55;7.03;;;;;;;;;;6259630;22;20003;-67
2023/11/02 03:57:38;;;;;;;8.80;7.00;;;;;;;;;;6260185;22;20375;-68
2023/11/02 04:00:09;;;;;;;9.55;6.95;;;;;;;;;;6260226;22;20003;-68
2023/11/02 04:02:36;;;;;;;12.48;7.30;;;;;;;;;;6259077;22;20003;-68
2023/11/02 04:05:19;;;;;;;10.32;6.68;;;;;;;;;;6260791;22;20087;-68
2023/11/02 04:07:47;;;;;;;8.35;5.57;;;;;;;;;;6286501;22;20077;-68
2023/11/02 04:10:13;;;;;;;7.90;5.00;;;;;;;;;;6289986;22;20004;-68
2023/11/02 04:12:54;;;;;;;6.78;4.72;;;;;;;;;;6286435;22;20007;-68
2023/11/02 04:15:19;;;;;;;9.82;5.25;;;;;;;;;;6290689;22;19995;-69
2023/11/02 04:17:45;;;;;;;10.15;6.82;;;;;;;;;;6258167;22;20010;-69
2023/11/02 04:20:10;;;;;;;10.82;7.28;;;;;;;;;;6288143;22;20094;-69
2023/11/02 04:22:35;;;;;;;8.90;6.43;;;;;;;;;;6287922;22;20472;-68
2023/11/02 04:25:01;;;;;;;11.13;6.90;;;;;;;;;;6287698;22;20673;-69
2023/11/02 04:27:26;;;;;;;8.93;6.32;;;;;;;;;;6263116;22;19999;-69
2023/11/02 04:29:54;;;;;;;9.77;6.53;;;;;;;;;;6257663;22;20298;-68
2023/11/02 04:32:20;;;;;;;9.93;7.22;;;;;;;;;;6261401;22;20090;-69
2023/11/02 04:34:45;;;;;;;9.43;6.90;;;;;;;;;;6259773;22;20105;-67
2023/11/02 04:37:16;;;;;;;11.70;7.03;;;;;;;;;;6258948;22;20031;-67
2023/11/02 04:39:45;;;;;;;9.27;6.40;;;;;;;;;;6287333;22;20000;-69
2023/11/02 04:42:10;;;;;;;8.60;5.93;;;;;;;;;;6287330;22;20129;-68
2023/11/02 04:44:36;;;;;;;10.27;6.50;;;;;;;;;;6259294;22;20407;-69
2023/11/02 04:47:01;;;;;;;8.82;6.28;;;;;;;;;;6288834;22;20393;-68
2023/11/02 04:49:29;;;;;;;9.23;6.05;;;;;;;;;;6285422;22;20602;-69
2023/11/02 04:52:02;;;;;;;8.82;6.65;;;;;;;;;;6285520;22;20022;-68
2023/11/02 04:54:27;;;;;;;10.57;8.10;;;;;;;;;;6287789;22;20027;-68
2023/11/02 04:56:52;;;;;;;9.35;6.68;;;;;;;;;;6258300;22;20030;-68
2023/11/02 04:59:18;;;;;;;8.23;6.32;;;;;;;;;;6261291;22;20037;-69
2023/11/02 05:01:43;;;;;;;9.23;6.20;;;;;;;;;;6258963;22;20419;-68
2023/11/02 05:04:09;;;;;;;10.32;6.63;;;;;;;;;;6261578;22;20025;-67
2023/11/02 05:06:38;;;;;;;8.90;6.32;;;;;;;;;;6283715;22;20621;-69
2023/11/02 05:09:04;;;;;;;7.75;5.80;;;;;;;;;;6258683;22;19999;-69
2023/11/02 05:11:29;;;;;;;9.02;5.65;;;;;;;;;;6284120;22;20121;-70
2023/11/02 05:13:54;;;;;;;8.87;5.10;;;;;;;;;;6285637;22;20086;-70
2023/11/02 05:16:19;;;;;;;8.73;4.80;;;;;;;;;;6259270;22;20218;-71
2023/11/02 05:18:45;;;;;;;5.73;3.33;;;;;;;;;;6285442;22;20220;-71
2023/11/02 05:21:10;;;;;;;5.10;3.00;;;;;;;;;;6288322;22;20214;-71
2023/11/02 05:23:37;;;;;;;5.40;3.03;;;;;;;;;;6258151;22;20757;-70
2023/11/02 05:26:03;;;;;;;5.72;2.90;;;;;;;;;;6259546;22;20229;-68
2023/11/02 05:28:29;;;;;;;5.38;2.70;;;;;;;;;;6286227;22;20504;-68
2023/11/02 05:30:54;;;;;;;5.75;2.90;;;;;;;;;;6278818;22;20094;-69
2023/11/02 05:33:19;;;;;;;6.00;3.13;;;;;;;;;;6287017;22;20409;-68
2023/11/02 05:35:44;;;;;;;6.03;3.23;;;;;;;;;;6285287;22;20852;-70
2023/11/02 05:38:10;;;;;;;5.30;3.20;;;;;;;;;;6288847;22;20220;-69
2023/11/02 05:40:35;;;;;;;5.43;3.20;;;;;;;;;;6286920;22;20312;-70
2023/11/02 05:43:00;;;;;;;5.43;3.20;;;;;;;;;;6287299;22;20218;-69
2023/11/02 05:45:25;;;;;;;5.85;3.08;;;;;;;;;;6285215;22;20662;-69
2023/11/02 05:47:51;;;;;;;6.75;3.35;;;;;;;;;;6259189;22;19999;-70
2023/11/02 05:50:17;;;;;;;6.53;3.13;;;;;;;;;;6254929;22;20612;-70
2023/11/02 05:52:45;;;;;;;5.90;3.30;;;;;;;;;;6257781;22;21059;-70
2023/11/02 05:55:10;;;;;;;5.95;3.58;;;;;;;;;;6286016;22;19995;-69
2023/11/02 05:57:35;;;;;;;5.22;3.30;;;;;;;;;;6284434;22;20673;-70
2023/11/02 06:00:01;;;;;;;5.97;3.00;;;;;;;;;;6286694;22;20057;-70
2023/11/02 06:02:32;;;;;;;4.75;2.60;;;;;;;;;;6249620;22;20007;-70
2023/11/02 06:04:59;;;;;;;5.50;3.10;;;;;;;;;;6259456;22;20009;-69
2023/11/02 06:07:24;;;;;;;5.95;2.60;;;;;;;;;;6256249;22;20082;-69
2023/11/02 06:09:52;;;;;;;5.20;2.80;;;;;;;;;;6260839;22;20749;-69
2023/11/02 06:12:17;;;;;;;4.70;2.60;;;;;;;;;;6257538;22;20246;-69
2023/11/02 06:14:43;;;;;;;5.25;2.63;;;;;;;;;;6287382;22;20096;-69
2023/11/02 06:17:08;;;;;;;4.72;2.38;;;;;;;;;;6256348;22;20010;-69
2023/11/02 06:19:34;;;;;;;5.22;2.80;;;;;;;;;;6260296;22;20000;-69
2023/11/02 06:21:59;;;;;;;6.43;2.90;;;;;;;;;;6285585;22;20754;-68
2023/11/02 06:24:25;;;;;;;5.10;2.55;;;;;;;;;;6256736;22;20086;-69
2023/11/02 06:26:50;;;;;;;5.40;2.80;;;;;;;;;;6285138;22;20006;-68
2023/11/02 06:29:18;;;;;;;5.10;2.57;;;;;;;;;;6284536;22;20214;-68
2023/11/02 06:31:43;;;;;;;5.75;2.70;;;;;;;;;;6258349;22;20224;-68
2023/11/02 06:34:08;;;;;;;5.23;2.57;;;;;;;;;;6255276;22;20805;-68
2023/11/02 06:36:33;;;;;;;7.13;2.35;;;;;;;;;;6259474;22;20256;-69
2023/11/02 06:39:01;;;;;;;6.35;2.25;;;;;;;;;;6257084;22;20026;-69
2023/11/02 06:41:26;;;;;;;5.63;2.20;;;;;;;;;;6259004;22;20006;-69
2023/11/02 06:43:52;;;;;;;4.90;2.00;;;;;;;;;;6284810;22;20004;-70
2023/11/02 06:46:17;;;;;;;3.95;1.73;;;;;;;;;;6259290;22;20019;-70
2023/11/02 06:48:42;;;;;;;3.58;1.48;;;;;;;;;;6285972;22;20010;-68
2023/11/02 06:51:08;;;;;;;4.53;1.52;;;;;;;;;;6288421;22;20481;-69
2023/11/02 06:53:33;;;;;;;3.95;1.48;;;;;;;;;;6257083;22;20118;-68
2023/11/02 06:55:58;;;;;;;4.47;1.67;;;;;;;;;;6286970;22;19999;-67
2023/11/02 06:58:26;;;;;;;4.18;1.50;;;;;;;;;;6286647;22;20366;-69
2023/11/02 07:00:51;;;;;;;5.22;1.92;;;;;;;;;;6257367;22;20006;-69
2023/11/02 07:03:21;;;;;;;4.75;1.58;;;;;;;;;;6260643;22;20003;-69
2023/11/02 07:05:47;;;;;;;4.18;1.52;;;;;;;;;;6255576;22;20006;-69
2023/11/02 07:08:17;;;;;;;5.78;1.70;;;;;;;;;;6287206;22;19999;-69
2023/11/02 07:10:42;;;;;;;3.60;1.60;;;;;;;;;;6284158;22;20002;-69
2023/11/02 07:13:09;;;;;;;3.72;1.50;;;;;;;;;;6287640;22;20007;-68
2023/11/02 07:15:35;;;;;;;4.57;1.65;;;;;;;;;;6262939;22;19999;-69
2023/11/02 07:18:00;;;;;;;4.50;1.50;;;;;;;;;;6286204;22;20460;-69
2023/11/02 07:20:25;;;;;;;3.63;1.50;;;;;;;;;;6289216;22;20252;-68
2023/11/02 07:22:50;;;;;;;4.90;1.67;;;;;;;;;;6257862;22;20226;-68
2023/11/02 07:25:16;;;;;;;4.00;1.57;;;;;;;;;;6261566;22;20123;-68
2023/11/02 07:27:41;;;;;;;3.70;1.30;;;;;;;;;;6258107;22;20225;-68
2023/11/02 07:30:07;;;;;;;4.05;1.50;;;;;;;;;;6261989;22;20027;-68
2023/11/02 07:32:32;;;;;;;4.28;1.52;;;;;;;;;;6286002;22;20003;-69
2023/11/02 07:34:57;;;;;;;5.20;1.95;;;;;;;;;;6257934;22;20091;-68
2023/11/02 07:37:23;;;;;;;3.75;1.40;;;;;;;;;;6284399;22;20034;-69
2023/11/02 07:39:48;;;;;;;3.90;1.63;;;;;;;;;;6286973;22;20452;-69
2023/11/02 07:42:13;;;;;;;4.18;1.50;;;;;;;;;;6287787;22;20240;-69
2023/11/02 07:44:38;;;;;;;4.28;2.00;;;;;;;;;;6259243;22;20003;-68
2023/11/02 07:47:04;;;;;;;4.55;1.90;;;;;;;;;;6288948;22;20818;-70
2023/11/02 07:49:29;;;;;;;4.70;2.13;;;;;;;;;;6258847;22;20006;-69
2023/11/02 07:51:54;;;;;;;4.97;1.93;;;;;;;;;;6261633;22;20092;-69
2023/11/02 07:54:22;;;;;;;4.78;2.00;;;;;;;;;;6257613;22;20232;-70
2023/11/02 07:56:47;;;;;;;5.10;1.80;;;;;;;;;;6289556;22;20007;-71
2023/11/02 07:59:12;;;;;;;4.18;1.63;;;;;;;;;;6285570;22;20003;-70
2023/11/02 08:01:40;;;;;;;4.65;1.58;;;;;;;;;;6286092;22;20004;-69
2023/11/02 08:04:06;;;;;;;4.18;1.58;;;;;;;;;;6287252;22;20064;-68
2023/11/02 08:06:32;;;;;;;4.63;1.75;;;;;;;;;;6286061;22;20698;-68
2023/11/02 08:08:57;;;;;;;3.97;1.65;;;;;;;;;;6288844;22;20037;-68
2023/11/02 08:11:25;;;;;;;4.60;1.80;;;;;;;;;;6287869;22;19995;-67
2023/11/02 08:13:53;;;;;;;4.97;2.05;;;;;;;;;;6286734;22;20263;-69
2023/11/02 08:16:19;;;;;;;4.93;1.90;;;;;;;;;;6258577;22;20009;-68
2023/11/02 08:18:44;;;;;;;3.97;1.77;;;;;;;;;;6259703;22;19999;-70
2023/11/02 08:21:13;;;;;;;8.32;1.90;;;;;;;;;;6288353;22;20002;-70
2023/11/02 08:23:38;;;;;;;4.65;1.83;;;;;;;;;;6258063;22;20045;-68
2023/11/02 08:26:06;;;;;;;4.97;1.95;;;;;;;;;;6288788;22;20052;-68
2023/11/02 08:28:32;;;;;;;7.10;2.15;;;;;;;;;;6287025;22;20000;-69
2023/11/02 08:30:59;;;;;;;4.40;1.92;;;;;;;;;;6286433;22;20064;-70
2023/11/02 08:33:24;;;;;;;4.28;1.75;;;;;;;;;;6288362;22;20090;-66
2023/11/02 08:35:51;;;;;;;6.83;2.60;;;;;;;;;;6259046;22;20605;-68
2023/11/02 08:38:16;;;;;;;9.63;5.32;;;;;;;;;;6260727;22;20222;-67
2023/11/02 08:40:43;;;;;;;7.90;4.65;;;;;;;;;;6257944;22;20777;-67
2023/11/02 08:43:09;;;;;;;6.97;3.15;;;;;;;;;;6259589;22;20611;-68
2023/11/02 08:45:34;;;;;;;6.05;2.92;;;;;;;;;;6287467;22;19996;-69
2023/11/02 08:47:59;;;;;;;4.68;2.10;;;;;;;;;;6259447;22;20003;-66
2023/11/02 08:50:25;;;;;;;4.80;2.10;;;;;;;;;;6287580;22;20053;-70
2023/11/02 08:52:52;;;;;;;4.82;2.17;;;;;;;;;;6258966;22;20333;-69
2023/11/02 08:55:18;;;;;;;5.18;2.50;;;;;;;;;;6287852;22;19995;-69
2023/11/02 08:57:45;;;;;;;5.10;2.10;;;;;;;;;;6285708;22;19992;-70
2023/11/02 09:00:10;;;;;;;5.13;2.20;;;;;;;;;;6260599;22;20019;-69
2023/11/02 09:02:36;;;;;;;4.40;1.85;;;;;;;;;;6257621;22;20042;-67
2023/11/02 09:05:04;;;;;;;5.28;2.10;;;;;;;;;;6260253;22;20006;-68
2023/11/02 09:07:30;;;;;;;4.60;1.90;;;;;;;;;;6260012;22;20007;-68
2023/11/02 09:09:58;;;;;;;5.22;1.70;;;;;;;;;;6258897;22;20379;-68
2023/11/02 09:12:26;;;;;;;4.50;1.63;;;;;;;;;;6259378;22;20015;-67
2023/11/02 09:14:51;;;;;;;3.72;1.42;;;;;;;;;;6258838;22;20022;-68
2023/11/02 09:17:16;;;;;;;5.30;2.10;;;;;;;;;;6287453;22;20053;-69
2023/11/02 09:19:41;;;;;;;4.80;1.63;;;;;;;;;;6257413;22;19999;-67
2023/11/02 09:22:07;;;;;;;4.53;1.80;;;;;;;;;;6258681;22;20709;-71
2023/11/02 09:24:32;;;;;;;4.63;1.70;;;;;;;;;;6285485;22;20213;-69
2023/11/02 09:26:57;;;;;;;4.13;1.52;;;;;;;;;;6286473;22;20286;-67
2023/11/02 09:29:25;;;;;;;3.25;1.27;;;;;;;;;;6286588;22;20003;-69
2023/11/02 09:31:50;;;;;;;3.95;1.60;;;;;;;;;;6287437;22;20544;-67
2023/11/02 09:34:16;;;;;;;5.13;1.50;;;;;;;;;;6286403;22;19999;-68
2023/11/02 09:36:46;;;;;;;4.97;1.63;;;;;;;;;;6287565;22;20006;-66
2023/11/02 09:39:11;;;;;;;4.68;1.70;;;;;;;;;;6261109;22;20027;-68
2023/11/02 09:41:37;;;;;;;5.05;2.10;;;;;;;;;;6259159;22;20589;-67
2023/11/02 09:44:03;;;;;;;6.85;2.70;;;;;;;;;;6287965;22;20032;-66
2023/11/02 09:46:28;;;;;;;5.88;2.78;;;;;;;;;;6283857;22;20011;-65
2023/11/02 09:48:53;;;;;;;5.60;2.63;;;;;;;;;;6287716;22;20002;-68
2023/11/02 09:51:19;;;;;;;5.50;2.33;;;;;;;;;;6285932;22;20581;-66
2023/11/02 09:53:44;;;;;;;5.72;2.47;;;;;;;;;;6257062;22;20010;-68
2023/11/02 09:56:10;;;;;;;4.60;2.03;;;;;;;;;;6259469;22;20003;-68
2023/11/02 09:58:35;;;;;;;4.82;2.35;;;;;;;;;;6257231;22;20588;-67
2023/11/02 10:01:04;;;;;;;5.47;2.40;;;;;;;;;;6287211;22;20374;-67
2023/11/02 10:03:31;;;;;;;4.78;2.10;;;;;;;;;;6257148;22;20007;-65
2023/11/02 10:05:57;;;;;;;4.97;2.28;;;;;;;;;;6257952;22;19999;-70
2023/11/02 10:08:22;;;;;;;5.95;2.15;;;;;;;;;;6257853;22;20006;-66
2023/11/02 10:10:50;;;;;;;3.17;1.00;;;;;;;;;;6286207;22;19999;-68
2023/11/02 10:13:15;;;;;;;4.47;1.50;;;;;;;;;;6258637;22;20031;-65
2023/11/02 10:15:43;;;;;;;3.70;1.30;;;;;;;;;;6285611;22;20037;-63
2023/11/02 10:18:13;;;;;;;4.40;1.30;;;;;;;;;;6287592;22;19999;-65
2023/11/02 10:20:43;;;;;;;3.38;1.10;;;;;;;;;;6254266;22;19999;-66
2023/11/02 10:23:13;;;;;;;4.63;1.27;;;;;;;;;;6288130;22;19999;-63
2023/11/02 10:25:41;;;;;;;3.50;1.00;;;;;;;;;;6257055;22;20523;-65
2023/11/02 10:28:06;;;;;;;3.45;1.00;;;;;;;;;;6259059;22;20025;-65
2023/11/02 10:30:33;;;;;;;2.80;0.93;;;;;;;;;;6260910;22;20798;-66
2023/11/02 10:33:07;;;;;;;3.38;0.95;;;;;;;;;;6255145;22;20283;-63
2023/11/02 10:35:32;;;;;;;2.83;1.00;;;;;;;;;;6259295;22;20006;-66
2023/11/02 10:38:01;;;;;;;2.67;0.90;;;;;;;;;;6256233;22;20004;-67
2023/11/02 10:40:45;;;;;;;2.78;0.90;;;;;;;;;;6258424;22;20053;-65
2023/11/02 10:43:14;;;;;;;3.95;1.40;;;;;;;;;;6257758;22;20003;-67
2023/11/02 10:45:43;;;;;;;6.60;1.10;;;;;;;;;;6284848;22;20049;-64
2023/11/02 10:48:11;;;;;;;3.97;0.95;;;;;;;;;;6258467;22;20102;-65
2023/11/02 10:50:37;;;;;;;3.60;0.90;;;;;;;;;;6283279;22;19999;-65
2023/11/02 10:53:07;;;;;;;3.63;1.20;;;;;;;;;;6284870;22;20012;-65
2023/11/02 10:55:42;;;;;;;3.33;1.10;;;;;;;;;;6257947;22;20009;-66
2023/11/02 10:58:07;;;;;;;3.05;0.75;;;;;;;;;;6287383;22;20087;-67
2023/11/02 11:00:33;;;;;;;2.55;0.63;;;;;;;;;;6256995;22;20102;-66
2023/11/02 11:02:59;;;;;;;2.88;0.75;;;;;;;;;;6256783;22;20018;-66
2023/11/02 11:05:26;;;;;;;2.22;0.68;;;;;;;;;;6283763;22;19995;-66
2023/11/02 11:07:55;;;;;;;3.42;1.02;;;;;;;;;;6257840;22;19999;-65
2023/11/02 11:10:20;;;;;;;3.00;0.80;;;;;;;;;;6285899;22;20023;-67
2023/11/02 11:12:46;;;;;;;2.08;0.57;;;;;;;;;;6258634;22;20035;-64
2023/11/02 11:15:12;;;;;;;2.22;0.65;;;;;;;;;;6257091;22;20099;-65
2023/11/02 11:17:41;;;;;;;3.15;0.60;;;;;;;;;;6259214;22;20027;-63
2023/11/02 11:20:06;;;;;;;1.40;0.55;;;;;;;;;;6258083;22;20009;-66
2023/11/02 11:22:33;;;;;;;2.30;0.57;;;;;;;;;;6259043;22;20808;-65
2023/11/02 11:25:05;;;;;;;1.27;0.45;;;;;;;;;;6257817;22;20480;-66
2023/11/02 11:27:31;;;;;;;1.60;0.57;;;;;;;;;;6257741;22;20332;-66
2023/11/02 11:29:57;;;;;;;1.80;0.55;;;;;;;;;;6259544;22;20616;-66
2023/11/02 11:32:25;;;;;;;2.45;0.68;;;;;;;;;;6257381;22;20105;-65
2023/11/02 11:34:53;;;;;;;2.25;0.60;;;;;;;;;;6258034;22;19999;-66
2023/11/02 11:37:57;;;;;;;1.77;0.45;;;;;;;;;;6259218;22;20414;-65
2023/11/02 11:40:23;;;;;;;2.47;0.80;;;;;;;;;;6180170;22;20007;-65
2023/11/02 11:42:56;;;;;;;3.10;0.93;;;;;;;;;;6258895;22;20749;-66
2023/11/02 11:45:27;;;;;;;3.22;0.82;;;;;;;;;;6255333;22;20140;-66
2023/11/02 11:47:56;;;;;;;3.80;0.90;;;;;;;;;;6284635;22;19995;-67
2023/11/02 11:50:31;;;;;;;2.43;0.70;;;;;;;;;;6285430;22;20050;-65
2023/11/02 11:53:16;;;;;;;2.88;0.70;;;;;;;;;;6281261;22;20006;-63
2023/11/02 11:55:42;;;;;;;3.47;1.10;;;;;;;;;;6231434;22;20411;-64
2023/11/02 11:58:08;;;;;;;3.13;0.93;;;;;;;;;;6282774;22;19999;-63
2023/11/02 12:00:34;;;;;;;3.90;0.88;;;;;;;;;;6286801;22;20773;-65
2023/11/02 12:03:09;;;;;;;3.40;0.98;;;;;;;;;;6255908;22;20109;-65
2023/11/02 12:05:55;;;;;;;3.33;0.70;;;;;;;;;;6257307;22;20006;-67
2023/11/02 12:08:22;;;;;;;3.97;1.10;;;;;;;;;;6257386;22;20076;-65
2023/11/02 12:10:51;;;;;;;4.28;1.80;;;;;;;;;;6256572;22;20078;-66
2023/11/02 12:13:16;;;;;;;3.90;1.38;;;;;;;;;;6257421;22;20007;-67
2023/11/02 12:15:54;;;;;;;3.08;1.10;;;;;;;;;;6257094;22;20928;-66
2023/11/02 12:18:32;;;;;;;2.45;0.80;;;;;;;;;;6256119;22;20006;-66
2023/11/02 12:20:59;;;;;;;3.53;1.80;;;;;;;;;;6258729;22;20072;-66
2023/11/02 12:23:30;;;;;;;1.73;0.70;;;;;;;;;;6282196;22;20031;-67
2023/11/02 12:25:58;;;;;;;1.23;0.40;;;;;;;;;;6259213;22;20003;-67
2023/11/02 12:28:48;;;;;;;3.22;0.43;;;;;;;;;;6283608;22;20528;-65
2023/11/02 12:31:23;;;;;;;3.42;0.68;;;;;;;;;;6283443;22;20736;-66
2023/11/02 12:33:49;;;;;;;2.13;0.65;;;;;;;;;;6284651;22;20007;-65
2023/11/02 12:36:14;;;;;;;2.72;0.70;;;;;;;;;;6284412;22;20082;-66
2023/11/02 12:38:44;;;;;;;2.35;0.60;;;;;;;;;;6258702;22;19999;-65
2023/11/02 12:41:09;;;;;;;;;;;;;;;;;;6254021;22;20009;-65
2023/11/02 12:43:39;;;;;;;3.75;1.00;;;;;;;;;;6285798;22;20600;-65
2023/11/02 12:46:08;;;;;;;1.95;0.60;;;;;;;;;;6231825;22;1158464;-66
2023/11/02 12:48:36;;;;;;;2.38;0.40;;;;;;;;;;6287450;22;20479;-67
2023/11/02 12:51:21;;;;;;;2.25;0.40;;;;;;;;;;6257239;22;20006;-68
2023/11/02 12:53:51;;;;;;;1.77;0.38;;;;;;;;;;6285016;22;20007;-68
2023/11/02 12:56:22;;;;;;;1.48;0.40;;;;;;;;;;6256410;22;20007;-69
2023/11/02 12:58:56;;;;;;;2.30;0.63;;;;;;;;;;6258580;22;20000;-67
2023/11/02 13:01:24;;;;;;;1.05;0.30;;;;;;;;;;6260566;22;20065;-67
2023/11/02 13:04:00;;;;;;;1.85;0.73;;;;;;;;;;6256866;22;20102;-67
2023/11/02 13:06:25;;;;;;;1.42;0.38;;;;;;;;;;6258663;22;19999;-68
2023/11/02 13:08:51;;;;;;;2.05;0.30;;;;;;;;;;6256351;22;20009;-67
2023/11/02 13:11:19;;;;;;;2.35;0.57;;;;;;;;;;6259368;22;20331;-67
2023/11/02 13:13:47;;;;;;;1.08;0.40;;;;;;;;;;6283882;22;20003;-67
2023/11/02 13:16:14;;;;;;;1.02;0.30;;;;;;;;;;6258486;22;20010;-67
2023/11/02 13:18:50;;;;;;;3.53;1.20;;;;;;;;;;6259712;22;20694;-67
2023/11/02 13:21:15;;;;;;;0.63;0.20;;;;;;;;;;6257427;22;20010;-68
2023/11/02 13:23:45;;;;;;;2.03;0.50;;;;;;;;;;6259372;22;20687;-68
2023/11/02 13:26:12;;;;;;;2.83;0.47;;;;;;;;;;6256633;22;20232;-67
2023/11/02 13:28:39;;;;;;;1.73;0.55;;;;;;;;;;6257966;22;20003;-68
2023/11/02 13:31:06;;;;;;;1.67;0.40;;;;;;;;;;6257907;22;20595;-67
2023/11/02 13:33:31;;;;;;;3.55;0.85;;;;;;;;;;6259168;22;20590;-68
2023/11/02 13:35:56;;;;;;;1.50;0.40;;;;;;;;;;6259922;22;20066;-67
2023/11/02 13:38:22;;;;;;;0.98;0.38;;;;;;;;;;6259996;22;20032;-68
2023/11/02 13:40:49;;;;;;;2.43;0.43;;;;;;;;;;6284425;22;20604;-67
2023/11/02 13:43:17;;;;;;;14.60;13.02;;;;;;;;;;6284588;22;20288;-68
2023/11/02 13:45:43;;;;;;;4.68;1.92;;;;;;;;;;6285613;22;20019;-68
2023/11/02 13:48:09;;;;;;;4.22;0.75;;;;;;;;;;6258257;22;20003;-68
2023/11/02 13:50:34;;;;;;;1.58;0.40;;;;;;;;;;6257354;22;20007;-66
2023/11/02 13:52:59;;;;;;;2.67;0.57;;;;;;;;;;6286581;22;20007;-66
2023/11/02 13:55:25;;;;;;;1.40;0.37;;;;;;;;;;6256676;22;20256;-68
2023/11/02 13:57:53;;;;;;;2.13;0.60;;;;;;;;;;6283879;22;20214;-66
2023/11/02 14:00:20;;;;;;;2.47;0.70;;;;;;;;;;6284083;22;20042;-68
2023/11/02 14:02:46;;;;;;;3.25;0.70;;;;;;;;;;6284799;22;20443;-67
2023/11/02 14:05:17;;;;;;;3.25;0.80;;;;;;;;;;6257127;22;19995;-66
2023/11/02 14:07:42;;;;;;;1.50;0.50;;;;;;;;;;6285737;22;20719;-64
2023/11/02 14:10:09;;;;;;;0.85;0.40;;;;;;;;;;6257960;22;20141;-67
2023/11/02 14:12:37;;;;;;;3.20;0.50;;;;;;;;;;6282739;22;20474;-67
2023/11/02 14:15:07;;;;;;;1.83;0.60;;;;;;;;;;6256760;22;20006;-67
2023/11/02 14:17:32;;;;;;;0.98;0.32;;;;;;;;;;6286530;22;20038;-67
2023/11/02 14:20:00;;;;;;;1.67;0.30;;;;;;;;;;6256559;22;20029;-66
2023/11/02 14:22:26;;;;;;;1.35;0.30;;;;;;;;;;6286055;22;19999;-67
2023/11/02 14:24:53;;;;;;;1.05;0.20;;;;;;;;;;6257052;22;20053;-65
2023/11/02 14:27:25;;;;;;;1.20;0.32;;;;;;;;;;6285458;22;20006;-65
2023/11/02 14:29:55;;;;;;;1.10;0.30;;;;;;;;;;6258174;22;20007;-67
2023/11/02 14:32:20;;;;;;;2.33;0.70;;;;;;;;;;6286728;22;19991;-66
2023/11/02 14:34:46;;;;;;;2.75;0.60;;;;;;;;;;6283888;22;20477;-68
2023/11/02 14:37:17;;;;;;;1.88;0.60;;;;;;;;;;6286413;22;19995;-67
2023/11/02 14:39:44;;;;;;;2.08;0.40;;;;;;;;;;6255441;22;20601;-67
2023/11/02 14:42:09;;;;;;;1.10;0.30;;;;;;;;;;6257475;22;19999;-66
2023/11/02 14:44:35;;;;;;;1.42;0.45;;;;;;;;;;6284819;22;20595;-67
2023/11/02 14:47:00;;;;;;;1.70;0.32;;;;;;;;;;6257621;22;20011;-68
2023/11/02 14:49:26;;;;;;;1.35;0.40;;;;;;;;;;6254189;22;20449;-68